Weather at JSJ Heliport [CLOSED]

Public forecast

Using degrees Fahrenheit for public forecast. Weather courtesy of forecast.io.

Closest aviation weather report (METAR) to JSJ Heliport

Closest report is Falcon Field, 6.6 nm (12.3 km) E.

2024/07/21 05:54 (retrieved 1 hour ago)

KFFZ 210554Z 13019G27KT 10SM CLR 33/19 A2990 RMK AO2 PK WND 15030/0455 LTG DSNT N AND NE SLP095 T03280189 10428 20322 51036

Closest aviation forecast (TAF) to JSJ Heliport

Closest forecast is Phoenix Sky Harbor International Airport, 7.4 nm (13.7 km) W.

2024/07/21 06:22 (retrieved 35 minutes ago)

TAF KPHX 210520Z 2106/2212 14014G20KT P6SM FEW100 SCT150 FM210700 10007KT P6SM FEW100 SCT150 FM211900 26008KT P6SM FEW100 FEW150 FM212300 04015G25KT P6SM VCTS SCT090CB BKN150 TEMPO 2123/2201 04025G35KT FM220100 02013G22KT P6SM VCSH SCT090 BKN150 FM220300 09010KT P6SM SCT100 BKN200